sensor_id;sensor_type;location;lat;lon;timestamp;pressure;altitude;pressure_sealevel;temperature;humidity
59829;BME280;45708;51.848;107.620;2022-12-18T00:00:45;95039.72;;;-16.12;74.15
59829;BME280;45708;51.848;107.620;2022-12-18T00:05:50;94989.34;;;-16.38;73.30
59829;BME280;45708;51.848;107.620;2022-12-18T00:10:51;95034.41;;;-16.06;73.34
59829;BME280;45708;51.848;107.620;2022-12-18T00:15:52;94987.88;;;-16.44;73.54
59829;BME280;45708;51.848;107.620;2022-12-18T00:20:53;95030.59;;;-16.16;73.99
59829;BME280;45708;51.848;107.620;2022-12-18T00:25:54;95023.41;;;-16.05;73.70
59829;BME280;45708;51.848;107.620;2022-12-18T00:31:06;95012.00;;;-16.15;73.78
59829;BME280;45708;51.848;107.620;2022-12-18T00:36:22;95033.38;;;-16.02;73.40
59829;BME280;45708;51.848;107.620;2022-12-18T00:41:24;95067.31;;;-15.85;73.83
59829;BME280;45708;51.848;107.620;2022-12-18T00:46:25;95064.91;;;-15.88;73.32
59829;BME280;45708;51.848;107.620;2022-12-18T00:51:26;95064.16;;;-15.90;74.15
59829;BME280;45708;51.848;107.620;2022-12-18T00:56:27;95061.50;;;-15.87;73.34
59829;BME280;45708;51.848;107.620;2022-12-18T01:01:28;95048.47;;;-15.98;73.53
59829;BME280;45708;51.848;107.620;2022-12-18T01:06:29;95047.38;;;-16.13;73.70
59829;BME280;45708;51.848;107.620;2022-12-18T01:11:30;95064.41;;;-15.96;73.50
59829;BME280;45708;51.848;107.620;2022-12-18T01:16:31;95057.84;;;-15.80;74.04
59829;BME280;45708;51.848;107.620;2022-12-18T01:21:33;95062.56;;;-15.52;73.47
59829;BME280;45708;51.848;107.620;2022-12-18T01:26:34;95061.19;;;-15.20;72.88
59829;BME280;45708;51.848;107.620;2022-12-18T01:31:35;95072.19;;;-15.01;73.54
59829;BME280;45708;51.848;107.620;2022-12-18T01:36:38;95073.88;;;-14.83;72.68
59829;BME280;45708;51.848;107.620;2022-12-18T01:41:40;95037.03;;;-14.90;73.33
59829;BME280;45708;51.848;107.620;2022-12-18T01:46:42;95046.50;;;-14.56;72.30
59829;BME280;45708;51.848;107.620;2022-12-18T01:51:43;95044.81;;;-14.38;72.76
59829;BME280;45708;51.848;107.620;2022-12-18T01:56:44;95031.88;;;-14.15;72.15
59829;BME280;45708;51.848;107.620;2022-12-18T02:01:45;95053.22;;;-13.84;71.80
59829;BME280;45708;51.848;107.620;2022-12-18T02:06:52;95076.84;;;-13.47;72.27
59829;BME280;45708;51.848;107.620;2022-12-18T02:12:05;95059.94;;;-13.31;72.09
59829;BME280;45708;51.848;107.620;2022-12-18T02:17:19;95081.56;;;-13.07;72.70
59829;BME280;45708;51.848;107.620;2022-12-18T02:27:46;95072.25;;;-12.91;70.01
59829;BME280;45708;51.848;107.620;2022-12-18T02:32:51;95084.47;;;-12.81;69.81
59829;BME280;45708;51.848;107.620;2022-12-18T02:37:53;95080.91;;;-12.62;70.48
59829;BME280;45708;51.848;107.620;2022-12-18T02:42:55;95056.84;;;-12.72;70.75
59829;BME280;45708;51.848;107.620;2022-12-18T02:48:03;95089.00;;;-12.38;70.62
59829;BME280;45708;51.848;107.620;2022-12-18T02:53:11;95090.38;;;-12.16;70.67
59829;BME280;45708;51.848;107.620;2022-12-18T02:58:20;95090.78;;;-12.08;69.90
59829;BME280;45708;51.848;107.620;2022-12-18T03:03:31;95051.59;;;-12.06;69.63
59829;BME280;45708;51.848;107.620;2022-12-18T03:08:39;95083.47;;;-11.69;69.97
59829;BME280;45708;51.848;107.620;2022-12-18T03:13:57;95062.88;;;-11.50;68.85
59829;BME280;45708;51.848;107.620;2022-12-18T03:19:03;95053.19;;;-11.29;68.55
59829;BME280;45708;51.848;107.620;2022-12-18T03:24:07;95050.50;;;-10.97;67.58
59829;BME280;45708;51.848;107.620;2022-12-18T03:29:14;95068.63;;;-10.73;66.22
59829;BME280;45708;51.848;107.620;2022-12-18T03:34:23;95058.88;;;-10.53;66.57
59829;BME280;45708;51.848;107.620;2022-12-18T03:39:26;95047.53;;;-10.49;66.29
59829;BME280;45708;51.848;107.620;2022-12-18T03:50:19;95064.44;;;-10.19;63.64
59829;BME280;45708;51.848;107.620;2022-12-18T03:55:19;95052.72;;;-10.09;64.41
59829;BME280;45708;51.848;107.620;2022-12-18T04:00:21;95063.84;;;-10.10;63.08
59829;BME280;45708;51.848;107.620;2022-12-18T04:05:24;95040.97;;;-10.12;63.77
59829;BME280;45708;51.848;107.620;2022-12-18T04:10:26;95056.69;;;-9.91;63.79
59829;BME280;45708;51.848;107.620;2022-12-18T04:15:27;95055.00;;;-9.77;62.21
59829;BME280;45708;51.848;107.620;2022-12-18T04:20:28;95052.06;;;-9.71;62.38
59829;BME280;45708;51.848;107.620;2022-12-18T04:25:28;95042.34;;;-9.66;62.26
59829;BME280;45708;51.848;107.620;2022-12-18T04:30:29;95041.22;;;-9.62;62.22
59829;BME280;45708;51.848;107.620;2022-12-18T04:35:30;95046.47;;;-9.51;61.91
59829;BME280;45708;51.848;107.620;2022-12-18T04:40:31;95011.91;;;-9.57;61.04
59829;BME280;45708;51.848;107.620;2022-12-18T04:45:32;95014.94;;;-9.64;61.04
59829;BME280;45708;51.848;107.620;2022-12-18T04:50:33;95027.53;;;-9.61;61.97
59829;BME280;45708;51.848;107.620;2022-12-18T04:55:34;95025.97;;;-9.37;60.82
59829;BME280;45708;51.848;107.620;2022-12-18T05:00:35;95011.97;;;-9.18;60.40
59829;BME280;45708;51.848;107.620;2022-12-18T05:05:36;95011.34;;;-9.09;61.13
59829;BME280;45708;51.848;107.620;2022-12-18T05:10:37;95009.50;;;-9.07;60.62
59829;BME280;45708;51.848;107.620;2022-12-18T05:15:38;94951.78;;;-9.49;59.97
59829;BME280;45708;51.848;107.620;2022-12-18T05:20:39;95003.56;;;-9.21;60.99
59829;BME280;45708;51.848;107.620;2022-12-18T05:25:39;95003.56;;;-8.95;61.31
59829;BME280;45708;51.848;107.620;2022-12-18T05:30:40;95016.22;;;-8.81;60.00
59829;BME280;45708;51.848;107.620;2022-12-18T05:35:41;94999.53;;;-8.86;60.43
59829;BME280;45708;51.848;107.620;2022-12-18T05:40:43;95004.97;;;-8.91;60.15
59829;BME280;45708;51.848;107.620;2022-12-18T05:45:44;94984.50;;;-8.91;59.61
59829;BME280;45708;51.848;107.620;2022-12-18T05:50:46;94994.97;;;-8.94;59.29
59829;BME280;45708;51.848;107.620;2022-12-18T05:55:47;94994.34;;;-8.98;59.60
59829;BME280;45708;51.848;107.620;2022-12-18T06:00:48;94975.50;;;-8.97;60.60
59829;BME280;45708;51.848;107.620;2022-12-18T06:05:49;94987.56;;;-8.86;60.31
59829;BME280;45708;51.848;107.620;2022-12-18T06:10:51;94984.72;;;-8.94;59.61
59829;BME280;45708;51.848;107.620;2022-12-18T06:15:52;94988.38;;;-8.73;60.52
59829;BME280;45708;51.848;107.620;2022-12-18T06:20:57;94987.44;;;-8.72;60.48
59829;BME280;45708;51.848;107.620;2022-12-18T06:26:02;94990.50;;;-8.67;60.51
59829;BME280;45708;51.848;107.620;2022-12-18T06:31:04;94990.94;;;-8.60;59.74
59829;BME280;45708;51.848;107.620;2022-12-18T06:41:08;94973.22;;;-8.76;59.77
59829;BME280;45708;51.848;107.620;2022-12-18T06:46:10;94990.00;;;-8.72;59.77
59829;BME280;45708;51.848;107.620;2022-12-18T06:51:11;94993.19;;;-8.81;59.93
59829;BME280;45708;51.848;107.620;2022-12-18T06:56:12;94993.94;;;-8.79;59.64
59829;BME280;45708;51.848;107.620;2022-12-18T07:01:13;94984.78;;;-8.83;59.71
59829;BME280;45708;51.848;107.620;2022-12-18T07:06:16;94997.00;;;-8.86;59.51
59829;BME280;45708;51.848;107.620;2022-12-18T07:11:18;94992.28;;;-8.93;60.49
59829;BME280;45708;51.848;107.620;2022-12-18T07:16:20;94999.75;;;-8.90;59.89
59829;BME280;45708;51.848;107.620;2022-12-18T07:21:22;94999.16;;;-8.93;59.89
59829;BME280;45708;51.848;107.620;2022-12-18T07:26:23;95003.13;;;-8.89;59.49
59829;BME280;45708;51.848;107.620;2022-12-18T07:31:25;94988.19;;;-9.08;59.17
59829;BME280;45708;51.848;107.620;2022-12-18T07:36:27;94991.38;;;-9.17;60.31
59829;BME280;45708;51.848;107.620;2022-12-18T07:41:28;94993.44;;;-9.35;59.47
59829;BME280;45708;51.848;107.620;2022-12-18T07:46:29;94993.28;;;-9.46;59.57
59829;BME280;45708;51.848;107.620;2022-12-18T07:51:30;95005.53;;;-9.64;60.00
59829;BME280;45708;51.848;107.620;2022-12-18T07:56:33;94997.97;;;-9.78;60.89
59829;BME280;45708;51.848;107.620;2022-12-18T08:01:34;94999.75;;;-9.93;60.86
59829;BME280;45708;51.848;107.620;2022-12-18T08:06:35;95004.53;;;-10.01;60.31
59829;BME280;45708;51.848;107.620;2022-12-18T08:11:36;94998.34;;;-10.24;61.70
59829;BME280;45708;51.848;107.620;2022-12-18T08:16:37;95005.56;;;-10.30;62.19
59829;BME280;45708;51.848;107.620;2022-12-18T08:21:39;95005.78;;;-10.48;61.95
59829;BME280;45708;51.848;107.620;2022-12-18T08:26:40;95008.44;;;-10.63;62.21
59829;BME280;45708;51.848;107.620;2022-12-18T08:31:41;95003.56;;;-10.81;62.00
59829;BME280;45708;51.848;107.620;2022-12-18T08:36:42;95013.16;;;-10.98;62.55
59829;BME280;45708;51.848;107.620;2022-12-18T08:41:43;95014.22;;;-11.17;61.88
59829;BME280;45708;51.848;107.620;2022-12-18T08:46:44;95016.38;;;-11.25;62.48
59829;BME280;45708;51.848;107.620;2022-12-18T08:51:45;95012.03;;;-11.37;62.98
59829;BME280;45708;51.848;107.620;2022-12-18T08:56:46;95015.44;;;-11.52;63.11
59829;BME280;45708;51.848;107.620;2022-12-18T09:01:47;95023.22;;;-11.70;63.37
59829;BME280;45708;51.848;107.620;2022-12-18T09:06:49;95011.22;;;-11.82;63.53
59829;BME280;45708;51.848;107.620;2022-12-18T09:11:51;95011.91;;;-11.94;63.61
59829;BME280;45708;51.848;107.620;2022-12-18T09:16:52;95011.28;;;-12.13;63.54
59829;BME280;45708;51.848;107.620;2022-12-18T09:21:53;94999.50;;;-12.46;63.90
59829;BME280;45708;51.848;107.620;2022-12-18T09:26:54;95004.59;;;-12.62;64.10
59829;BME280;45708;51.848;107.620;2022-12-18T09:31:54;95014.59;;;-12.74;64.40
59829;BME280;45708;51.848;107.620;2022-12-18T09:36:55;94987.91;;;-12.83;64.79
59829;BME280;45708;51.848;107.620;2022-12-18T09:41:58;95003.44;;;-12.87;64.98
59829;BME280;45708;51.848;107.620;2022-12-18T09:52:17;95009.97;;;-13.15;64.90
59829;BME280;45708;51.848;107.620;2022-12-18T09:57:22;95007.81;;;-13.23;65.58
59829;BME280;45708;51.848;107.620;2022-12-18T10:02:25;95006.09;;;-13.22;65.30
59829;BME280;45708;51.848;107.620;2022-12-18T10:28:43;95008.41;;;-13.50;67.62
59829;BME280;45708;51.848;107.620;2022-12-18T10:33:44;95014.25;;;-13.66;67.55
59829;BME280;45708;51.848;107.620;2022-12-18T10:38:45;95002.44;;;-13.84;68.24
59829;BME280;45708;51.848;107.620;2022-12-18T10:43:46;95008.56;;;-13.88;68.81
59829;BME280;45708;51.848;107.620;2022-12-18T10:53:54;95006.19;;;-14.08;68.84
59829;BME280;45708;51.848;107.620;2022-12-18T10:58:58;95001.16;;;-14.27;69.34
59829;BME280;45708;51.848;107.620;2022-12-18T11:04:02;95019.88;;;-14.30;68.59
59829;BME280;45708;51.848;107.620;2022-12-18T11:09:22;95018.97;;;-14.46;69.20
59829;BME280;45708;51.848;107.620;2022-12-18T11:14:32;95004.00;;;-14.69;68.46
59829;BME280;45708;51.848;107.620;2022-12-18T11:19:35;95008.69;;;-14.79;68.98
59829;BME280;45708;51.848;107.620;2022-12-18T11:24:37;95001.16;;;-14.99;69.04
59829;BME280;45708;51.848;107.620;2022-12-18T11:29:39;95015.56;;;-15.00;69.90
59829;BME280;45708;51.848;107.620;2022-12-18T11:34:45;95013.06;;;-15.20;69.36
59829;BME280;45708;51.848;107.620;2022-12-18T11:39:56;95016.25;;;-15.35;68.99
59829;BME280;45708;51.848;107.620;2022-12-18T11:45:02;95002.88;;;-15.58;68.56
59829;BME280;45708;51.848;107.620;2022-12-18T11:50:14;95011.63;;;-15.65;69.16
59829;BME280;45708;51.848;107.620;2022-12-18T11:55:30;95009.63;;;-15.77;69.04
59829;BME280;45708;51.848;107.620;2022-12-18T12:00:36;94998.97;;;-15.85;69.87
59829;BME280;45708;51.848;107.620;2022-12-18T12:11:25;95005.06;;;-16.10;69.13
59829;BME280;45708;51.848;107.620;2022-12-18T12:22:06;94985.59;;;-16.50;69.03
59829;BME280;45708;51.848;107.620;2022-12-18T12:27:17;94997.34;;;-16.49;69.08
59829;BME280;45708;51.848;107.620;2022-12-18T12:38:06;94987.75;;;-16.63;69.49
59829;BME280;45708;51.848;107.620;2022-12-18T12:43:27;94988.09;;;-16.70;69.79
59829;BME280;45708;51.848;107.620;2022-12-18T12:48:48;94987.22;;;-16.69;69.76
59829;BME280;45708;51.848;107.620;2022-12-18T12:53:50;94970.84;;;-16.81;69.63
59829;BME280;45708;51.848;107.620;2022-12-18T13:09:17;94970.94;;;-16.84;69.34
59829;BME280;45708;51.848;107.620;2022-12-18T13:14:27;94968.13;;;-16.98;69.47
59829;BME280;45708;51.848;107.620;2022-12-18T13:19:31;94966.81;;;-17.08;69.69
59829;BME280;45708;51.848;107.620;2022-12-18T13:24:37;94954.44;;;-17.14;69.93
59829;BME280;45708;51.848;107.620;2022-12-18T13:29:43;94964.53;;;-17.14;69.78
59829;BME280;45708;51.848;107.620;2022-12-18T13:34:44;94957.66;;;-17.11;69.48
59829;BME280;45708;51.848;107.620;2022-12-18T13:39:45;94958.91;;;-16.99;69.63
59829;BME280;45708;51.848;107.620;2022-12-18T13:44:46;94948.75;;;-16.98;69.47
59829;BME280;45708;51.848;107.620;2022-12-18T13:49:47;94943.69;;;-16.98;69.44
59829;BME280;45708;51.848;107.620;2022-12-18T13:54:54;94942.31;;;-17.06;69.57
59829;BME280;45708;51.848;107.620;2022-12-18T13:59:57;94907.38;;;-17.39;69.59
59829;BME280;45708;51.848;107.620;2022-12-18T14:04:58;94923.19;;;-17.34;69.72
59829;BME280;45708;51.848;107.620;2022-12-18T14:09:59;94949.72;;;-17.24;69.58
59829;BME280;45708;51.848;107.620;2022-12-18T14:15:03;94947.41;;;-17.30;69.77
59829;BME280;45708;51.848;107.620;2022-12-18T14:20:15;94951.25;;;-17.43;69.81
59829;BME280;45708;51.848;107.620;2022-12-18T14:25:23;94936.34;;;-17.49;70.02
59829;BME280;45708;51.848;107.620;2022-12-18T14:30:41;94925.94;;;-17.40;70.01
59829;BME280;45708;51.848;107.620;2022-12-18T14:35:58;94943.50;;;-17.37;69.80
59829;BME280;45708;51.848;107.620;2022-12-18T14:41:02;94872.00;;;-17.82;69.84
59829;BME280;45708;51.848;107.620;2022-12-18T14:46:05;94929.78;;;-17.53;69.56
59829;BME280;45708;51.848;107.620;2022-12-18T14:51:16;94920.13;;;-17.65;69.50
59829;BME280;45708;51.848;107.620;2022-12-18T15:01:27;94904.25;;;-17.91;70.11
59829;BME280;45708;51.848;107.620;2022-12-18T15:06:35;94912.53;;;-17.87;70.59
59829;BME280;45708;51.848;107.620;2022-12-18T15:11:45;94927.06;;;-17.94;69.63
59829;BME280;45708;51.848;107.620;2022-12-18T15:16:53;94918.09;;;-18.01;69.92
59829;BME280;45708;51.848;107.620;2022-12-18T15:21:55;94909.13;;;-18.09;69.89
59829;BME280;45708;51.848;107.620;2022-12-18T15:26:55;94918.44;;;-18.11;69.88
59829;BME280;45708;51.848;107.620;2022-12-18T15:32:17;94912.91;;;-18.21;69.99
59829;BME280;45708;51.848;107.620;2022-12-18T15:37:22;94912.09;;;-18.22;70.29
59829;BME280;45708;51.848;107.620;2022-12-18T15:42:23;94900.50;;;-18.27;69.89
59829;BME280;45708;51.848;107.620;2022-12-18T15:47:24;94906.34;;;-18.27;69.74
59829;BME280;45708;51.848;107.620;2022-12-18T15:52:24;94909.19;;;-18.36;69.62
59829;BME280;45708;51.848;107.620;2022-12-18T15:57:25;94891.03;;;-18.46;70.23
59829;BME280;45708;51.848;107.620;2022-12-18T16:02:26;94917.78;;;-18.41;69.80
59829;BME280;45708;51.848;107.620;2022-12-18T16:07:27;94815.38;;;-19.17;69.80
59829;BME280;45708;51.848;107.620;2022-12-18T16:12:29;94925.63;;;-18.51;69.79
59829;BME280;45708;51.848;107.620;2022-12-18T16:17:30;94929.09;;;-18.53;70.08
59829;BME280;45708;51.848;107.620;2022-12-18T16:22:33;94644.63;;;-20.29;70.02
59829;BME280;45708;51.848;107.620;2022-12-18T16:27:34;94899.81;;;-18.81;70.33
59829;BME280;45708;51.848;107.620;2022-12-18T16:32:35;94915.22;;;-18.65;69.87
59829;BME280;45708;51.848;107.620;2022-12-18T16:37:36;94897.41;;;-18.85;69.96
59829;BME280;45708;51.848;107.620;2022-12-18T16:42:39;94922.53;;;-18.84;69.91
59829;BME280;45708;51.848;107.620;2022-12-18T16:47:41;94931.31;;;-18.95;70.36
59829;BME280;45708;51.848;107.620;2022-12-18T16:52:41;94939.63;;;-18.93;70.52
59829;BME280;45708;51.848;107.620;2022-12-18T16:57:42;94913.38;;;-18.86;70.34
59829;BME280;45708;51.848;107.620;2022-12-18T17:02:43;94922.41;;;-18.79;70.99
59829;BME280;45708;51.848;107.620;2022-12-18T17:07:44;94925.06;;;-18.84;70.54
59829;BME280;45708;51.848;107.620;2022-12-18T17:12:45;94930.19;;;-18.87;70.87
59829;BME280;45708;51.848;107.620;2022-12-18T17:17:46;94919.19;;;-18.84;70.55
59829;BME280;45708;51.848;107.620;2022-12-18T17:22:47;94909.97;;;-18.59;70.38
59829;BME280;45708;51.848;107.620;2022-12-18T17:27:50;94921.38;;;-18.24;71.11
59829;BME280;45708;51.848;107.620;2022-12-18T17:32:50;94919.16;;;-18.08;70.61
59829;BME280;45708;51.848;107.620;2022-12-18T17:37:51;94917.19;;;-18.00;70.13
59829;BME280;45708;51.848;107.620;2022-12-18T17:42:52;94922.19;;;-17.98;70.27
59829;BME280;45708;51.848;107.620;2022-12-18T17:47:53;94914.13;;;-17.85;70.74
59829;BME280;45708;51.848;107.620;2022-12-18T17:52:57;94928.13;;;-17.76;71.08
59829;BME280;45708;51.848;107.620;2022-12-18T17:57:58;94935.31;;;-17.67;70.79
59829;BME280;45708;51.848;107.620;2022-12-18T18:02:59;94934.19;;;-17.58;70.89
59829;BME280;45708;51.848;107.620;2022-12-18T18:08:01;94934.47;;;-17.44;71.01
59829;BME280;45708;51.848;107.620;2022-12-18T18:13:02;94934.28;;;-17.38;70.83
59829;BME280;45708;51.848;107.620;2022-12-18T18:18:03;94930.19;;;-17.42;70.75
59829;BME280;45708;51.848;107.620;2022-12-18T18:23:04;94873.06;;;-17.88;71.38
59829;BME280;45708;51.848;107.620;2022-12-18T18:28:06;94942.28;;;-17.50;71.08
59829;BME280;45708;51.848;107.620;2022-12-18T18:33:06;94934.00;;;-17.54;71.53
59829;BME280;45708;51.848;107.620;2022-12-18T18:38:07;94918.56;;;-17.68;71.32
59829;BME280;45708;51.848;107.620;2022-12-18T18:43:08;94943.72;;;-17.66;71.68
59829;BME280;45708;51.848;107.620;2022-12-18T18:48:09;94935.06;;;-17.82;71.87
59829;BME280;45708;51.848;107.620;2022-12-18T18:53:10;94922.56;;;-17.86;71.52
59829;BME280;45708;51.848;107.620;2022-12-18T18:58:11;94951.81;;;-17.80;71.55
59829;BME280;45708;51.848;107.620;2022-12-18T19:03:12;94954.81;;;-17.94;72.09
59829;BME280;45708;51.848;107.620;2022-12-18T19:08:13;94944.78;;;-17.95;72.18
59829;BME280;45708;51.848;107.620;2022-12-18T19:13:14;94949.19;;;-18.02;71.89
59829;BME280;45708;51.848;107.620;2022-12-18T19:18:15;94955.50;;;-18.13;72.28
59829;BME280;45708;51.848;107.620;2022-12-18T19:23:16;94937.41;;;-18.26;71.66
59829;BME280;45708;51.848;107.620;2022-12-18T19:28:17;94956.16;;;-18.08;71.88
59829;BME280;45708;51.848;107.620;2022-12-18T19:33:20;94964.75;;;-18.14;71.43
59829;BME280;45708;51.848;107.620;2022-12-18T19:38:21;94966.56;;;-18.18;71.47
59829;BME280;45708;51.848;107.620;2022-12-18T19:43:22;94969.91;;;-18.17;71.28
59829;BME280;45708;51.848;107.620;2022-12-18T19:48:23;94973.34;;;-18.20;71.00
59829;BME280;45708;51.848;107.620;2022-12-18T19:53:23;94968.38;;;-18.48;71.68
59829;BME280;45708;51.848;107.620;2022-12-18T19:58:25;94970.56;;;-18.37;71.39
59829;BME280;45708;51.848;107.620;2022-12-18T20:03:25;94976.47;;;-18.38;71.60
59829;BME280;45708;51.848;107.620;2022-12-18T20:08:26;94960.75;;;-18.46;71.18
59829;BME280;45708;51.848;107.620;2022-12-18T20:13:27;94985.63;;;-18.35;71.07
59829;BME280;45708;51.848;107.620;2022-12-18T20:18:28;94976.47;;;-18.38;71.59
59829;BME280;45708;51.848;107.620;2022-12-18T20:23:30;94975.22;;;-18.26;71.68
59829;BME280;45708;51.848;107.620;2022-12-18T20:28:31;94980.84;;;-18.18;71.57
59829;BME280;45708;51.848;107.620;2022-12-18T20:33:32;94971.16;;;-18.05;71.33
59829;BME280;45708;51.848;107.620;2022-12-18T20:38:34;94956.75;;;-18.02;71.58
59829;BME280;45708;51.848;107.620;2022-12-18T20:43:35;94963.34;;;-17.98;72.14
59829;BME280;45708;51.848;107.620;2022-12-18T20:48:36;94959.53;;;-18.09;71.52
59829;BME280;45708;51.848;107.620;2022-12-18T20:53:38;94952.09;;;-18.12;71.92
59829;BME280;45708;51.848;107.620;2022-12-18T20:58:39;94947.41;;;-18.23;71.85
59829;BME280;45708;51.848;107.620;2022-12-18T21:03:41;94957.41;;;-18.20;71.59
59829;BME280;45708;51.848;107.620;2022-12-18T21:08:43;94940.16;;;-18.32;72.03
59829;BME280;45708;51.848;107.620;2022-12-18T21:13:43;94962.34;;;-18.17;71.85
59829;BME280;45708;51.848;107.620;2022-12-18T21:18:45;94959.81;;;-18.17;72.53
59829;BME280;45708;51.848;107.620;2022-12-18T21:23:46;94959.53;;;-18.09;72.29
59829;BME280;45708;51.848;107.620;2022-12-18T21:28:51;94945.34;;;-18.12;72.30
59829;BME280;45708;51.848;107.620;2022-12-18T21:33:53;94942.34;;;-18.23;71.73
59829;BME280;45708;51.848;107.620;2022-12-18T21:38:54;94967.16;;;-18.11;71.78
59829;BME280;45708;51.848;107.620;2022-12-18T21:43:56;94951.56;;;-18.22;72.11
59829;BME280;45708;51.848;107.620;2022-12-18T21:48:57;94956.91;;;-18.31;72.04
59829;BME280;45708;51.848;107.620;2022-12-18T21:53:57;94934.75;;;-18.47;72.30
59829;BME280;45708;51.848;107.620;2022-12-18T21:58:59;94963.03;;;-18.38;72.45
59829;BME280;45708;51.848;107.620;2022-12-18T22:04:00;94974.88;;;-18.40;72.41
59829;BME280;45708;51.848;107.620;2022-12-18T22:09:01;94980.28;;;-18.53;71.74
59829;BME280;45708;51.848;107.620;2022-12-18T22:14:01;94979.88;;;-18.65;72.30
59829;BME280;45708;51.848;107.620;2022-12-18T22:19:04;94975.78;;;-18.68;72.20
59829;BME280;45708;51.848;107.620;2022-12-18T22:24:11;94984.19;;;-18.69;71.84
59829;BME280;45708;51.848;107.620;2022-12-18T22:29:18;94984.66;;;-18.84;71.94
59829;BME280;45708;51.848;107.620;2022-12-18T22:34:20;94981.25;;;-18.82;72.43
59829;BME280;45708;51.848;107.620;2022-12-18T22:39:24;94995.91;;;-18.68;71.61
59829;BME280;45708;51.848;107.620;2022-12-18T22:44:25;94992.31;;;-18.61;71.69
59829;BME280;45708;51.848;107.620;2022-12-18T22:49:26;94997.25;;;-18.58;71.78
59829;BME280;45708;51.848;107.620;2022-12-18T22:54:27;94980.56;;;-18.62;72.25
59829;BME280;45708;51.848;107.620;2022-12-18T22:59:28;94995.31;;;-18.50;71.60
59829;BME280;45708;51.848;107.620;2022-12-18T23:04:29;94996.19;;;-18.51;71.64
59829;BME280;45708;51.848;107.620;2022-12-18T23:09:31;94996.69;;;-18.39;72.02
59829;BME280;45708;51.848;107.620;2022-12-18T23:14:32;95013.34;;;-18.35;71.92
59829;BME280;45708;51.848;107.620;2022-12-18T23:19:33;94990.66;;;-18.62;72.11
59829;BME280;45708;51.848;107.620;2022-12-18T23:24:34;94996.97;;;-18.49;71.66
59829;BME280;45708;51.848;107.620;2022-12-18T23:29:35;95015.47;;;-18.50;71.32
59829;BME280;45708;51.848;107.620;2022-12-18T23:34:36;95037.06;;;-18.42;71.53
59829;BME280;45708;51.848;107.620;2022-12-18T23:39:37;95026.72;;;-18.60;71.85
59829;BME280;45708;51.848;107.620;2022-12-18T23:44:38;95035.72;;;-18.53;71.88
59829;BME280;45708;51.848;107.620;2022-12-18T23:49:39;95044.09;;;-18.52;71.25
59829;BME280;45708;51.848;107.620;2022-12-18T23:54:40;95041.38;;;-18.46;71.37
59829;BME280;45708;51.848;107.620;2022-12-18T23:59:41;95047.84;;;-18.37;72.33
